TR-0029 weather

Niğde Airport
Bor, Niğde Province, Turkey

Public forecast

Using degrees Celsius for public forecast. Weather courtesy of forecast.io.

Closest aviation weather report (METAR) to Niğde Airport

Closest report is Nevşehir Kapadokya Airport, 55.7 nm (103.2 km) N. Retrieved 2019/12/09 20:20 UTC (31 minutes ago):

LTAZ 092020Z 23001KT 9999 BKN026 02/00 Q1017 RMK RWY29 26003KT 180V290

Closest aviation forecast (TAF) to Niğde Airport

Closest forecast is Nevşehir Kapadokya Airport, 55.7 nm (103.2 km) N. Retrieved 2019/12/09 18:00 UTC (3 hours ago):

TAF LTAZ 091640Z 0918/1018 VRB02KT 9999 FEW012 BKN040 PROB40 1001/1005 4000 BR BECMG 1010/1013 SCT040